William P Hobby Airport
KHOU : now visible

Airfield :











YOU CAN JOIN US ON...

 
LOGIN :

Register | Disclaimer

   EN    FR    IT 

 









Legend :    VFR   Marginal VFR   IFR   Intensive IFR   Very Intensive IFR
Visi :
Ceiling :
>= 8 km
>= 3000ft
5 to 8 km
1000 to 3000 ft
1500m to 5 km
500 to 1000 ft
800 to 1500m
200 to 500 ft
< 800m
< 200 ft
Symbols :   Thunderstorms  Fog  Heavy snow  Heavy precipitations  Wind > 20 kt






- Airport Elevation : 46 ft
- IATA code : HOU


KHOU - William P Hobby

CURRENT METAR :
  • 040753Z 34006KT 10SM BKN048 17/11 A3026 RMK AO2 SLP253 T01670111

EXPIRED METARs :
  • 040653Z 34005KT 10SM BKN040 BKN050 17/12 A3028 RMK AO2 SLP259 T01720117
  • 040553Z 36008KT 10SM BKN048 18/12 A3030 RMK AO2 SLP264 T01780117 10233 20178 402670178 58004

TAF KHOU
Valid from the 04 at 06:00 until the 05 at 06:00 UTC


040521Z 0406/0506 34006KT P6SM OVC040
FM041400 36005KT P6SM BKN019
FM041900 04005KT P6SM SCT015 BKN020
FM042100 10006KT P6SM BKN020
FM050300 13005KT 6SM BR OVC007
KZHU FIR / North America



MET'MAP, your aeronautical weather chart ! - Copyright ORBIFLY December 2007 - Disclaimer

ORBIFLY MET'MAP TEAM :

Programming & Development : Alexandra Zaïnal
Original concept : Baudouin d'Aumeries
Technical & hardware support : Manuel Goepfert
Assistance : Marc-Olivier Méhu




SOURCES & CREDITS :

   NOAA       Earth
Advisory